Norwegian Sky — C6PZ8 — position and weather

sailwx.info

Track history (hours):
 
Tides and Currents Weather Stations Pressure Air Temp Water Temp Dewpoint Dewpoint Depression Visibility Wind Speed Wind Dir Waves Ship Positions

Norwegian Sky (Norway)

Operator: Norwegian Cruise Line

Last reported at 2017-May-26 11:00 UTC. Time now 2017-May-26 16:46 UTC.
Position N 25°46' W 080°10'.

Length 259 m; draft 8 m.

Type: Ship. MMSI: 308865000.

Date/timePositionNaut miles runAvg speedWind from/ knotsBaromVisibWave heightAir tempDewpointWater temp
2017-May-26 11:00N 25°46' W 080°10'0 0.0
2017-May-26 10:29N 25°46' W 080°10'1 1.5
2017-May-26 10:00N 25°47' W 080°11'1 2.3
2017-May-26 09:30N 25°46' W 080°09'510.2
2017-May-26 09:00N 25°46' W 080°04'5 9.3
2017-May-26 08:30N 25°48' W 079°59'4 8.5
2017-May-26 08:00N 25°50' W 079°55'4 8.2
2017-May-26 07:30N 25°52' W 079°51'4 8.6
2017-May-26 07:00N 25°54' W 079°46'4 8.5
2017-May-26 06:30N 25°56' W 079°42'4 8.5
2017-May-26 06:00N 25°58' W 079°38'4 8.4
2017-May-26 05:30N 25°60' W 079°34'4 8.7
2017-May-26 05:00N 26°02' W 079°29'5 9.0
2017-May-26 04:30N 26°04' W 079°25'5 9.3
2017-May-26 04:00N 26°06' W 079°20'714.8
2017-May-26 03:30N 26°09' W 079°13'7 0.4
2017-May-25 09:20N 26°06' W 079°20'720.9
2017-May-25 09:00N 26°00' W 079°25'1121.0
2017-May-25 08:30N 25°52' W 079°32'1121.4
2017-May-25 08:00N 25°42' W 079°35'1121.9
2017-May-25 07:30N 25°31' W 079°37'5920.2
2017-May-25 04:34N 24°35' W 079°59'69 1.5
2017-May-23 06:00N 23°54' W 081°00'11518.1 130 / 281015.0 5.4 26.023.229.0
2017-May-22 23:39N 25°23' W 079°40'319.7
2017-May-22 23:30N 25°26' W 079°40'918.8
2017-May-22 23:00N 25°35' W 079°41'918.4
2017-May-22 22:30N 25°40' W 079°50'917.8
2017-May-22 22:00N 25°44' W 079°58'713.9
2017-May-22 21:31N 25°46' W 080°06'4 7.7
2017-May-22 21:00N 25°46' W 080°10'0 0.0
2017-May-22 20:29N 25°46' W 080°10'0 0.0
2017-May-22 19:59N 25°46' W 080°10'0 0.0
2017-May-22 19:25N 25°46' W 080°10'0 0.0
2017-May-22 18:58N 25°46' W 080°10'0 0.0
2017-May-22 18:28N 25°46' W 080°10'0 0.0
2017-May-22 17:58N 25°46' W 080°10'0 0.0
2017-May-22 17:25N 25°46' W 080°10'0 0.0
2017-May-22 17:00N 25°46' W 080°10'0 0.0
2017-May-22 16:30N 25°46' W 080°10'0 0.0
2017-May-22 16:00N 25°46' W 080°10'0 0.0
2017-May-22 15:27N 25°46' W 080°10'0 0.0
2017-May-22 14:59N 25°46' W 080°10'0 0.0
2017-May-22 13:59N 25°46' W 080°10'0 0.0
2017-May-22 13:29N 25°46' W 080°10'0 0.0
2017-May-22 12:58N 25°46' W 080°10'0 0.0
2017-May-22 12:28N 25°46' W 080°10'0 0.0
2017-May-22 11:55N 25°46' W 080°10'0 0.0
2017-May-22 11:30N 25°46' W 080°10'0 0.0
2017-May-22 11:00N 25°46' W 080°10'0 0.0
2017-May-22 10:30N 25°46' W 080°10'1 1.1
2017-May-22 10:00N 25°47' W 080°10'1 2.5
2017-May-22 09:30N 25°46' W 080°09'510.3
2017-May-22 09:00N 25°47' W 080°03'4 8.7
2017-May-22 08:30N 25°48' W 079°59'4 8.7
2017-May-22 08:00N 25°50' W 079°55'4 8.6
2017-May-22 07:30N 25°52' W 079°50'4 8.6
2017-May-22 07:00N 25°54' W 079°46'4 8.6
2017-May-22 06:30N 25°56' W 079°42'4 8.6
2017-May-22 06:00N 25°58' W 079°38'4332.3
2017-May-22 06:00N 25°54' W 079°36'713.5 120 / 201019.010.8 25.022.229.0
2017-May-22 05:30N 26°00' W 079°33'4 8.6
2017-May-22 05:00N 26°02' W 079°29'4 8.5
2017-May-22 04:30N 26°04' W 079°25'4 8.6
2017-May-22 04:00N 26°06' W 079°21'4 8.5
2017-May-22 03:30N 26°08' W 079°17'4 8.5
2017-May-22 03:00N 26°10' W 079°12'4 8.4
2017-May-22 02:30N 26°12' W 079°08'510.5
2017-May-22 02:00N 26°13' W 079°02'67 3.4
2017-May-21 06:00N 26°06' W 077°48'16 0.7 090 / 101020.0 5.4 24.021.129.0
2017-May-20 06:00N 25°54' W 078°00'7615.9 100 / 221017.0 5.4 25.022.229.0
2017-May-20 01:14N 26°05' W 079°24'416.4
2017-May-20 01:00N 26°03' W 079°27'816.3
2017-May-20 00:30N 25°59' W 079°35'816.3
2017-May-20 00:01N 25°56' W 079°43'816.0
2017-May-19 23:31N 25°52' W 079°51'815.8
2017-May-19 23:01N 25°49' W 079°60'612.6
2017-May-19 22:30N 25°46' W 080°05'5 9.4
2017-May-19 22:01N 25°47' W 080°10'1 1.0
2017-May-19 21:30N 25°47' W 080°10'0 0.0
2017-May-19 21:01N 25°47' W 080°10'0 0.0
2017-May-19 20:31N 25°47' W 080°10'0 0.0
2017-May-19 20:01N 25°47' W 080°10'0 0.0
2017-May-19 19:30N 25°47' W 080°10'0 0.0
2017-May-19 19:00N 25°47' W 080°10'0 0.0
2017-May-19 18:31N 25°47' W 080°10'0 0.0
2017-May-19 18:00N 25°47' W 080°10'0 0.0
2017-May-19 17:30N 25°47' W 080°10'0 0.0
2017-May-19 17:00N 25°47' W 080°10'0 0.0
2017-May-19 16:30N 25°47' W 080°10'0 0.0
2017-May-19 16:00N 25°47' W 080°10'0 0.0
2017-May-19 15:31N 25°47' W 080°10'0 0.0
2017-May-19 15:01N 25°47' W 080°10'0 0.0
2017-May-19 14:00N 25°47' W 080°10'0 0.0
2017-May-19 13:30N 25°47' W 080°10'0 0.0
2017-May-19 13:01N 25°47' W 080°10'0 0.0
2017-May-19 12:30N 25°47' W 080°10'0 0.0
2017-May-19 12:00N 25°47' W 080°10'0 0.0
2017-May-19 11:30N 25°47' W 080°10'0 0.0
2017-May-19 11:01N 25°47' W 080°10'0 0.0
2017-May-19 10:31N 25°47' W 080°10'0 0.0
2017-May-19 10:00N 25°47' W 080°10'1 2.6
2017-May-19 09:30N 25°46' W 080°09'510.1
2017-May-19 09:01N 25°47' W 080°03'4 8.3
2017-May-19 08:30N 25°48' W 079°59'4 8.3
2017-May-19 08:01N 25°50' W 079°55'4 8.2
2017-May-19 07:30N 25°52' W 079°51'4 8.1
2017-May-19 07:01N 25°55' W 079°47'4 8.1
2017-May-19 06:31N 25°57' W 079°43'4 8.0
2017-May-19 06:00N 25°59' W 079°40'4 8.1
2017-May-19 05:28N 26°02' W 079°36'5 7.9
2017-May-19 04:51N 26°04' W 079°31'3 7.8
2017-May-19 04:30N 26°06' W 079°29'4 7.5
2017-May-19 04:00N 26°08' W 079°25'4 7.5
2017-May-19 03:30N 26°11' W 079°22'4 8.9
2017-May-19 03:00N 26°13' W 079°18'4 8.2
2017-May-19 02:30N 26°15' W 079°14'4 7.9
2017-May-19 02:00N 26°17' W 079°11'17 1.0
2017-May-18 09:33N 26°04' W 079°21'119.1
2017-May-18 09:30N 26°03' W 079°22'1019.7
2017-May-18 09:00N 25°56' W 079°29'1019.6
2017-May-18 08:30N 25°47' W 079°34'1121.4
2017-May-18 08:00N 25°37' W 079°36'1121.1
2017-May-18 07:30N 25°26' W 079°37'3925.4
2017-May-18 06:00N 24°48' W 079°42'   090 / 251015.0 2.2 25.023.628.0
Track history (hours):
 
Tides and Currents Weather Stations Pressure Air Temp Water Temp Dewpoint Dewpoint Depression Visibility Wind Speed Wind Dir Waves Ship Positions

Norwegian Sky (Norway)

Operator: Norwegian Cruise Line

Last reported at 2017-May-26 11:00 UTC. Time now 2017-May-26 16:46 UTC.
Position N 25°46' W 080°10'.

Length 259 m; draft 8 m.

Type: Ship. MMSI: 308865000.

Date/timePositionNaut miles runAvg speedWind from/ knotsBaromVisibWave heightAir tempDewpointWater temp
2017-May-26 11:00N 25°46' W 080°10'0 0.0
2017-May-26 10:29N 25°46' W 080°10'1 1.5
2017-May-26 10:00N 25°47' W 080°11'1 2.3
2017-May-26 09:30N 25°46' W 080°09'510.2
2017-May-26 09:00N 25°46' W 080°04'5 9.3
2017-May-26 08:30N 25°48' W 079°59'4 8.5
2017-May-26 08:00N 25°50' W 079°55'4 8.2
2017-May-26 07:30N 25°52' W 079°51'4 8.6
2017-May-26 07:00N 25°54' W 079°46'4 8.5
2017-May-26 06:30N 25°56' W 079°42'4 8.5
2017-May-26 06:00N 25°58' W 079°38'4 8.4
2017-May-26 05:30N 25°60' W 079°34'4 8.7
2017-May-26 05:00N 26°02' W 079°29'5 9.0
2017-May-26 04:30N 26°04' W 079°25'5 9.3
2017-May-26 04:00N 26°06' W 079°20'714.8
2017-May-26 03:30N 26°09' W 079°13'7 0.4
2017-May-25 09:20N 26°06' W 079°20'720.9
2017-May-25 09:00N 26°00' W 079°25'1121.0
2017-May-25 08:30N 25°52' W 079°32'1121.4
2017-May-25 08:00N 25°42' W 079°35'1121.9
2017-May-25 07:30N 25°31' W 079°37'5920.2
2017-May-25 04:34N 24°35' W 079°59'69 1.5
2017-May-23 06:00N 23°54' W 081°00'11518.1 130 / 281015.0 5.4 26.023.229.0
2017-May-22 23:39N 25°23' W 079°40'319.7
2017-May-22 23:30N 25°26' W 079°40'918.8
2017-May-22 23:00N 25°35' W 079°41'918.4
2017-May-22 22:30N 25°40' W 079°50'917.8
2017-May-22 22:00N 25°44' W 079°58'713.9
2017-May-22 21:31N 25°46' W 080°06'4 7.7
2017-May-22 21:00N 25°46' W 080°10'0 0.0
2017-May-22 20:29N 25°46' W 080°10'0 0.0
2017-May-22 19:59N 25°46' W 080°10'0 0.0
2017-May-22 19:25N 25°46' W 080°10'0 0.0
2017-May-22 18:58N 25°46' W 080°10'0 0.0
2017-May-22 18:28N 25°46' W 080°10'0 0.0
2017-May-22 17:58N 25°46' W 080°10'0 0.0
2017-May-22 17:25N 25°46' W 080°10'0 0.0
2017-May-22 17:00N 25°46' W 080°10'0 0.0
2017-May-22 16:30N 25°46' W 080°10'0 0.0
2017-May-22 16:00N 25°46' W 080°10'0 0.0
2017-May-22 15:27N 25°46' W 080°10'0 0.0
2017-May-22 14:59N 25°46' W 080°10'0 0.0
2017-May-22 13:59N 25°46' W 080°10'0 0.0
2017-May-22 13:29N 25°46' W 080°10'0 0.0
2017-May-22 12:58N 25°46' W 080°10'0 0.0
2017-May-22 12:28N 25°46' W 080°10'0 0.0
2017-May-22 11:55N 25°46' W 080°10'0 0.0
2017-May-22 11:30N 25°46' W 080°10'0 0.0
2017-May-22 11:00N 25°46' W 080°10'0 0.0
2017-May-22 10:30N 25°46' W 080°10'1 1.1
2017-May-22 10:00N 25°47' W 080°10'1 2.5
2017-May-22 09:30N 25°46' W 080°09'510.3
2017-May-22 09:00N 25°47' W 080°03'4 8.7
2017-May-22 08:30N 25°48' W 079°59'4 8.7
2017-May-22 08:00N 25°50' W 079°55'4 8.6
2017-May-22 07:30N 25°52' W 079°50'4 8.6
2017-May-22 07:00N 25°54' W 079°46'4 8.6
2017-May-22 06:30N 25°56' W 079°42'4 8.6
2017-May-22 06:00N 25°58' W 079°38'4332.3
2017-May-22 06:00N 25°54' W 079°36'713.5 120 / 201019.010.8 25.022.229.0
2017-May-22 05:30N 26°00' W 079°33'4 8.6
2017-May-22 05:00N 26°02' W 079°29'4 8.5
2017-May-22 04:30N 26°04' W 079°25'4 8.6
2017-May-22 04:00N 26°06' W 079°21'4 8.5
2017-May-22 03:30N 26°08' W 079°17'4 8.5
2017-May-22 03:00N 26°10' W 079°12'4 8.4
2017-May-22 02:30N 26°12' W 079°08'510.5
2017-May-22 02:00N 26°13' W 079°02'67 3.4
2017-May-21 06:00N 26°06' W 077°48'16 0.7 090 / 101020.0 5.4 24.021.129.0
2017-May-20 06:00N 25°54' W 078°00'7615.9 100 / 221017.0 5.4 25.022.229.0
2017-May-20 01:14N 26°05' W 079°24'416.4
2017-May-20 01:00N 26°03' W 079°27'816.3
2017-May-20 00:30N 25°59' W 079°35'816.3
2017-May-20 00:01N 25°56' W 079°43'816.0
2017-May-19 23:31N 25°52' W 079°51'815.8
2017-May-19 23:01N 25°49' W 079°60'612.6
2017-May-19 22:30N 25°46' W 080°05'5 9.4
2017-May-19 22:01N 25°47' W 080°10'1 1.0
2017-May-19 21:30N 25°47' W 080°10'0 0.0
2017-May-19 21:01N 25°47' W 080°10'0 0.0
2017-May-19 20:31N 25°47' W 080°10'0 0.0
2017-May-19 20:01N 25°47' W 080°10'0 0.0
2017-May-19 19:30N 25°47' W 080°10'0 0.0
2017-May-19 19:00N 25°47' W 080°10'0 0.0
2017-May-19 18:31N 25°47' W 080°10'0 0.0
2017-May-19 18:00N 25°47' W 080°10'0 0.0
2017-May-19 17:30N 25°47' W 080°10'0 0.0
2017-May-19 17:00N 25°47' W 080°10'0 0.0
2017-May-19 16:30N 25°47' W 080°10'0 0.0
2017-May-19 16:00N 25°47' W 080°10'0 0.0
2017-May-19 15:31N 25°47' W 080°10'0 0.0
2017-May-19 15:01N 25°47' W 080°10'0 0.0
2017-May-19 14:00N 25°47' W 080°10'0 0.0
2017-May-19 13:30N 25°47' W 080°10'0 0.0
2017-May-19 13:01N 25°47' W 080°10'0 0.0
2017-May-19 12:30N 25°47' W 080°10'0 0.0
2017-May-19 12:00N 25°47' W 080°10'0 0.0
2017-May-19 11:30N 25°47' W 080°10'0 0.0
2017-May-19 11:01N 25°47' W 080°10'0 0.0
2017-May-19 10:31N 25°47' W 080°10'0 0.0
2017-May-19 10:00N 25°47' W 080°10'1 2.6
2017-May-19 09:30N 25°46' W 080°09'510.1
2017-May-19 09:01N 25°47' W 080°03'4 8.3
2017-May-19 08:30N 25°48' W 079°59'4 8.3
2017-May-19 08:01N 25°50' W 079°55'4 8.2
2017-May-19 07:30N 25°52' W 079°51'4 8.1
2017-May-19 07:01N 25°55' W 079°47'4 8.1
2017-May-19 06:31N 25°57' W 079°43'4 8.0
2017-May-19 06:00N 25°59' W 079°40'4 8.1
2017-May-19 05:28N 26°02' W 079°36'5 7.9
2017-May-19 04:51N 26°04' W 079°31'3 7.8
2017-May-19 04:30N 26°06' W 079°29'4 7.5
2017-May-19 04:00N 26°08' W 079°25'4 7.5
2017-May-19 03:30N 26°11' W 079°22'4 8.9
2017-May-19 03:00N 26°13' W 079°18'4 8.2
2017-May-19 02:30N 26°15' W 079°14'4 7.9
2017-May-19 02:00N 26°17' W 079°11'17 1.0
2017-May-18 09:33N 26°04' W 079°21'119.1
2017-May-18 09:30N 26°03' W 079°22'1019.7
2017-May-18 09:00N 25°56' W 079°29'1019.6
2017-May-18 08:30N 25°47' W 079°34'1121.4
2017-May-18 08:00N 25°37' W 079°36'1121.1
2017-May-18 07:30N 25°26' W 079°37'3925.4
2017-May-18 06:00N 24°48' W 079°42'   090 / 251015.0 2.2 25.023.628.0

Dump ship's entire track history